Decoded Metar for LZSL (SLIAC in SLOVAKIA) (IATA:SLD) | Meteo·Mobile Aviation Weather
aviador You're here:

LZSL Decoded Metar

SLIAC in SLOVAKIA
Report Time2019-04-23 07:30:00
UTC Time2019-04-23 07:54:53
Flight Rules vfr VFR
Wind130° at 06 kt
W.Decomp.*RWY 18: 3.6 kt HW 4.8 kt LCW
Visibility9999 m
Phenomena:N/A
Clouds:Few 035 Hf
Broken 060 Hf
Expected CloudBase > 2,000 ft AGL from Temp-Dew spread
Ceiling6,000 ft
Temp10°C (ISA -3)
Dew Point05°C (71% RH)
AAT6.7°C
QNH1017 hPa
Density Alt659 ft
Elevation1,027 ft
Report Wrong Elevation
Raw Report
LZSL 230730Z 13006KT 050V170 9999 FEW035 BKN060 10/05 Q1017=

Extra information for LZSL:More info

Metar Taf Metar & Taf Last 4 Metars F.Rules Stats Wind Profile Meteogram Temp Stats Airport Information Weather charts Add Link Nearby VenuesMetar ALERT Operation Metar Decoded Social comments